Impacts TAF Board
For situational awareness. Not to be used for flight planning purposes.
IDs:

KCLE - Cleveland/Hopkins In, OH, US

Issued at 1120 UTC 16 Oct 2018
Updated at 1214 UTC 16 Oct 2018
Potential Impact None Slight Moderate High
Time<<17/01Z 17/02Z 17/03Z 17/04Z 17/05Z 17/06Z 17/07Z 17/08Z 17/09Z 17/10Z 17/11Z 17/12Z 17/13Z>>
Type PRVL PRVL PRVL PRVL PRVL PRVL PRVL PRVL PRVL PRVL PRVL PRVL PRVL
VIS >6 >6 >6 >6 >6 >6 >6 >6 >6 >6 >6 >6 >6
CIG -- -- -- -- -- -- -- -- 60 60 60 60 20
Cover SCT SCT SCT SCT SCT SCT SCT SCT BKN BKN BKN BKN OVC
FltCat VFR VFR VFR VFR VFR VFR VFR VFR VFR VFR VFR VFR MVFR
WX -- -- -- -- -- -- -- -- -- -- -- -- VCSH
WDir 230 230 230 230 230 230 230 230 240 240 240 240 280
WSpd 8 8 8 8 8 8 8 8 10 10 10 10 12
WGst -- -- -- -- -- -- -- -- 20 20 20 20 24
Raw TAF
KCLE 161120Z 1612/1718 23008KT P6SM SCT250
  FM170900 24010G20KT P6SM BKN060
  FM171300 28012G24KT P6SM VCSH BKN020 OVC035
  FM171700 29014G27KT P6SM SCT025 BKN035


METAR Board
Radar Display
Forecast Discussion
For situational awareness. Not to be used for flight planning purposes.